This is the latest recevied weather packets stored in our database for station/object AD6NH. If no packets are shown the sender has not sent any weather packets the latest 10 day(s).
| Time | Temp. | Humidity | Pressure | Rain* | Wind** | Luminosity | Snow |
|---|---|---|---|---|---|---|---|
| 1777581754 | 23.89° C | 48% | 1012 hPa | 0 mm | - | - | - |
| 1777581154 | 23.33° C | 49% | 1012.1 hPa | 0 mm | - | - | - |
| 1777580554 | 23.89° C | 49% | 1012.1 hPa | 0 mm | - | - | - |
| 1777579954 | 23.89° C | 51% | 1012.1 hPa | 0 mm | - | - | - |
| 1777579354 | 23.33° C | 53% | 1012.2 hPa | 0 mm | - | - | - |
| 1777578754 | 24.44° C | 50% | 1012.2 hPa | 0 mm | - | - | - |
| 1777578154 | 23.89° C | 52% | 1012.2 hPa | 0 mm | - | - | - |
| 1777577554 | 23.89° C | 52% | 1012.2 hPa | 0 mm | - | - | - |
| 1777576954 | 23.33° C | 54% | 1012.5 hPa | 0 mm | - | - | - |
| 1777576354 | 23.33° C | 54% | 1012.5 hPa | 0 mm | - | - | - |
| 1777575754 | 22.78° C | 54% | 1012.6 hPa | 0 mm | - | - | - |
| 1777575154 | 22.78° C | 54% | 1012.8 hPa | 0 mm | - | - | - |
| 1777574554 | 22.22° C | 54% | 1012.9 hPa | 0 mm | - | - | - |
| 1777573954 | 23.33° C | 50% | 1012.9 hPa | 0 mm | - | - | - |
| 1777573354 | 21.67° C | 53% | 1013.1 hPa | 0 mm | - | - | - |
| 1777572754 | 22.78° C | 50% | 1013.1 hPa | 0 mm | - | - | - |
| 1777572154 | 22.78° C | 50% | 1013.2 hPa | 0 mm | - | - | - |
| 1777571554 | 21.67° C | 54% | 1013.3 hPa | 0 mm | - | - | - |
| 1777570954 | 21.11° C | 55% | 1013.4 hPa | 0 mm | - | - | - |
| 1777570354 | 21.67° C | 53% | 1013.4 hPa | 0 mm | - | - | - |
| 1777569754 | 20.56° C | 58% | 1013.4 hPa | 0 mm | - | - | - |
| 1777569154 | 20.56° C | 57% | 1013.6 hPa | 0 mm | - | - | - |
| 1777568554 | 21.11° C | 55% | 1013.6 hPa | 0 mm | - | - | - |
| 1777567954 | 20.56° C | 57% | 1013.6 hPa | 0 mm | - | - | - |
| 1777567354 | 20° C | 58% | 1013.7 hPa | 0 mm | - | - | - |
* Rain latest hour (hover to see other rain measurements)
** Current wind speed in m/s (hover to see current wind gust speed)